Time;durP1;ratioP1;P1;durP2;ratioP2;P2;SDS_P1;SDS_P2;PMS_P1;PMS_P2;Temp;Humidity;BMP_temperature;BMP_pressure;BME280_temperature;BME280_humidity;BME280_pressure;Samples;Min_cycle;Max_cycle;Signal;HPM_P1;HPM_P2
2021/07/21 00:01:59;;;;;;;1.40;1.30;;;;;;;17.54;57.08;101618.50;5979600;29;20426;-76
2021/07/21 00:05:07;;;;;;;2.65;1.30;;;;;;;17.44;56.93;101611.63;5979092;29;20208;-76
2021/07/21 00:08:11;;;;;;;1.00;1.00;;;;;;;17.34;55.87;101625.22;5979659;29;20515;-76
2021/07/21 00:14:39;;;;;;;1.35;1.25;;;;;;;17.48;55.08;101618.38;5980869;29;20193;-76
2021/07/21 00:17:45;;;;;;;1.60;1.50;;;;;;;17.43;55.21;101628.44;5980436;29;20216;-76
2021/07/21 00:20:49;;;;;;;2.30;1.05;;;;;;;17.27;55.64;101632.78;5980460;29;20193;-76
2021/07/21 00:23:53;;;;;;;2.38;1.50;;;;;;;17.30;55.40;101624.03;5980317;29;20225;-76
2021/07/21 00:26:57;;;;;;;2.42;1.38;;;;;;;17.18;55.44;101631.47;5980355;29;20203;-76
2021/07/21 00:30:05;;;;;;;2.67;1.27;;;;;;;17.30;55.35;101635.06;5980386;29;20267;-76
2021/07/21 00:33:11;;;;;;;4.93;1.25;;;;;;;17.32;55.41;101630.16;5979195;29;20208;-76
2021/07/21 00:36:16;;;;;;;1.25;1.25;;;;;;;17.20;55.91;101636.75;5979334;29;20232;-76
2021/07/21 00:39:20;;;;;;;1.27;1.27;;;;;;;17.27;55.76;101643.81;5980147;29;20200;-76
2021/07/21 00:42:25;;;;;;;1.33;1.23;;;;;;;17.32;55.83;101635.66;5979317;29;20240;-76
2021/07/21 00:45:31;;;;;;;1.42;1.33;;;;;;;17.14;55.69;101638.56;5979402;29;20199;-76
2021/07/21 00:48:35;;;;;;;1.63;1.52;;;;;;;17.18;55.44;101652.72;5993503;29;20213;-76
2021/07/21 00:51:41;;;;;;;1.10;1.00;;;;;;;17.31;55.49;101656.03;5978662;29;20551;-76
2021/07/21 00:54:46;;;;;;;2.13;1.10;;;;;;;17.17;54.68;101654.63;5978596;29;20557;-76
2021/07/21 00:57:51;;;;;;;3.72;1.20;;;;;;;17.22;54.81;101651.97;5978803;29;20277;-76
2021/07/21 01:00:57;;;;;;;2.92;1.15;;;;;;;17.23;54.56;101667.44;5991806;24;20573;-75
2021/07/21 01:04:02;;;;;;;1.10;1.10;;;;;;;17.15;54.21;101662.31;5978257;29;20240;-75
2021/07/21 01:07:08;;;;;;;2.03;1.30;;;;;;;17.19;53.86;101669.00;5979901;29;20197;-75
2021/07/21 01:10:17;;;;;;;1.40;1.00;;;;;;;17.10;54.21;101675.94;5977961;29;20286;-75
2021/07/21 01:13:26;;;;;;;1.20;1.10;;;;;;;17.05;54.34;101675.81;5978108;29;20231;-75
2021/07/21 01:16:35;;;;;;;2.15;1.30;;;;;;;17.17;53.92;101682.19;5977907;29;20612;-76
2021/07/21 01:20:03;;;;;;;2.63;1.27;;;;;;;17.16;54.06;101686.03;5978612;29;20197;-75
2021/07/21 01:23:18;;;;;;;3.13;1.10;;;;;;;17.25;54.00;101689.28;5978591;29;20215;-75
2021/07/21 01:26:27;;;;;;;2.00;1.20;;;;;;;17.09;54.68;101689.97;5978431;29;20209;-75
2021/07/21 01:29:35;;;;;;;1.50;0.90;;;;;;;17.20;54.11;101703.78;5979436;29;20246;-75
2021/07/21 01:32:41;;;;;;;0.98;0.98;;;;;;;17.27;53.99;101698.97;5979980;29;20193;-76
2021/07/21 01:35:55;;;;;;;2.83;0.93;;;;;;;17.30;53.97;101706.78;5978161;29;20288;-76
2021/07/21 01:39:07;;;;;;;0.93;0.93;;;;;;;17.15;53.34;101703.66;5992862;29;20235;-74
2021/07/21 01:42:16;;;;;;;0.80;0.80;;;;;;;17.11;53.01;101704.38;5982149;29;20268;-75
2021/07/21 01:45:24;;;;;;;1.05;1.05;;;;;;;17.10;52.46;101705.47;5982663;29;20495;-76
2021/07/21 01:48:33;;;;;;;0.80;0.80;;;;;;;17.09;52.28;101718.41;5984482;29;20204;-74
2021/07/21 01:51:43;;;;;;;0.90;0.90;;;;;;;17.09;52.31;101718.41;5983573;29;20203;-76
2021/07/21 01:54:50;;;;;;;1.00;0.95;;;;;;;16.89;52.31;101717.91;5983336;29;20193;-76
2021/07/21 01:57:57;;;;;;;1.05;0.93;;;;;;;16.96;52.25;101718.63;5983381;29;20228;-76
2021/07/21 02:01:34;;;;;;;1.02;1.02;;;;;;;17.00;52.30;101714.28;5972163;29;20533;-76
2021/07/21 02:04:46;;;;;;;0.93;0.90;;;;;;;16.98;52.42;101716.47;5981534;29;20442;-76
2021/07/21 02:07:54;;;;;;;1.00;0.95;;;;;;;17.02;52.30;101717.69;5980857;29;20461;-76
2021/07/21 02:11:02;;;;;;;3.63;1.00;;;;;;;16.92;52.32;101712.72;5983001;29;20201;-75
2021/07/21 02:14:07;;;;;;;7.32;0.90;;;;;;;16.81;52.22;101727.34;5981896;29;20262;-75
2021/07/21 02:17:34;;;;;;;0.70;0.70;;;;;;;16.76;52.09;101729.13;5997041;29;20236;-76
2021/07/21 02:20:39;;;;;;;2.72;1.10;;;;;;;16.56;52.62;101742.38;5981011;29;20234;-75
2021/07/21 02:23:46;;;;;;;1.48;0.90;;;;;;;16.64;52.20;101733.78;5982549;29;20193;-76
2021/07/21 02:27:10;;;;;;;3.05;0.90;;;;;;;16.56;52.04;101740.44;5981573;29;20197;-75
2021/07/21 02:30:15;;;;;;;2.35;0.80;;;;;;;16.50;52.40;101740.53;5981827;29;20276;-75
2021/07/21 02:33:24;;;;;;;0.85;0.80;;;;;;;16.61;51.97;101737.00;5980877;29;20209;-75
2021/07/21 02:36:30;;;;;;;2.58;0.80;;;;;;;16.65;51.88;101743.72;5982658;29;20193;-76
2021/07/21 02:39:35;;;;;;;2.85;1.13;;;;;;;16.45;52.40;101740.38;5995689;29;20228;-75
2021/07/21 02:42:39;;;;;;;1.58;1.00;;;;;;;16.47;52.49;101740.97;5981445;29;20477;-76
2021/07/21 02:45:43;;;;;;;0.80;0.80;;;;;;;16.47;52.31;101747.34;5982185;29;20225;-75
2021/07/21 02:48:51;;;;;;;1.45;0.90;;;;;;;16.44;52.58;101753.31;5980434;29;20212;-75
2021/07/21 02:52:08;;;;;;;0.77;0.77;;;;;;;16.51;52.32;101750.47;5982191;29;20200;-75
2021/07/21 02:55:30;;;;;;;0.88;0.88;;;;;;;16.42;52.27;101749.09;5995277;29;20209;-76
2021/07/21 02:58:43;;;;;;;3.63;1.00;;;;;;;16.56;52.14;101753.41;5982068;29;20220;-76
2021/07/21 03:01:49;;;;;;;0.80;0.80;;;;;;;16.40;52.17;101751.25;5979899;29;20304;-76
2021/07/21 03:05:10;;;;;;;0.98;0.98;;;;;;;16.48;52.14;101764.72;5980189;29;20209;-77
2021/07/21 03:08:29;;;;;;;1.63;0.90;;;;;;;16.53;52.22;101762.13;5980372;29;20503;-76
2021/07/21 03:11:56;;;;;;;2.70;0.90;;;;;;;16.53;52.06;101774.00;5980089;29;20239;-76
2021/07/21 03:15:02;;;;;;;0.80;0.80;;;;;;;16.44;52.34;101771.75;5980702;29;20256;-75
2021/07/21 03:18:13;;;;;;;1.77;0.98;;;;;;;16.36;52.53;101772.09;5980864;29;20300;-76
2021/07/21 03:21:24;;;;;;;1.13;0.98;;;;;;;16.43;52.65;101773.69;5980019;29;20215;-75
2021/07/21 03:24:37;;;;;;;2.75;1.10;;;;;;;16.38;52.39;101780.97;5979842;29;20209;-75
2021/07/21 03:27:53;;;;;;;0.80;0.80;;;;;;;16.38;52.56;101776.28;5980315;29;20379;-76
2021/07/21 03:31:10;;;;;;;0.95;0.88;;;;;;;16.40;52.35;101778.81;5980291;29;20418;-75
2021/07/21 03:34:20;;;;;;;0.93;0.93;;;;;;;16.30;52.46;101784.88;5979661;29;20217;-76
2021/07/21 03:37:34;;;;;;;0.90;0.90;;;;;;;16.26;52.55;101784.47;5995092;29;20276;-75
2021/07/21 03:40:41;;;;;;;0.90;0.90;;;;;;;16.20;53.07;101790.91;5994987;29;20215;-76
2021/07/21 03:44:00;;;;;;;0.80;0.80;;;;;;;16.28;52.93;101787.84;5979615;29;20397;-76
2021/07/21 03:47:05;;;;;;;0.73;0.73;;;;;;;16.36;52.25;101785.88;5979977;29;20193;-76
2021/07/21 03:50:12;;;;;;;1.65;0.88;;;;;;;16.31;52.89;101788.47;5980393;29;20201;-76
2021/07/21 03:53:20;;;;;;;1.55;0.98;;;;;;;16.20;52.93;101807.44;5980789;29;20199;-76
2021/07/21 03:56:26;;;;;;;1.98;1.00;;;;;;;16.24;53.31;101797.66;5978976;29;20209;-76
2021/07/21 03:59:38;;;;;;;1.55;0.73;;;;;;;16.20;53.25;101807.44;5979596;29;20221;-76
2021/07/21 04:02:50;;;;;;;2.58;0.80;;;;;;;16.14;53.56;101816.63;5979079;29;20244;-75
2021/07/21 04:05:56;;;;;;;0.80;0.80;;;;;;;16.31;53.22;101813.25;5979473;29;20200;-76
2021/07/21 04:09:12;;;;;;;2.85;1.08;;;;;;;16.26;53.54;101823.03;5979781;29;20216;-76
2021/07/21 04:12:18;;;;;;;1.00;1.00;;;;;;;16.13;53.58;101816.84;5979605;29;20501;-76
2021/07/21 04:15:26;;;;;;;0.90;0.90;;;;;;;16.33;53.27;101816.63;5979467;29;20487;-76
2021/07/21 04:18:37;;;;;;;1.00;0.90;;;;;;;16.21;53.40;101828.41;5980241;29;20299;-75
2021/07/21 04:21:43;;;;;;;0.90;0.90;;;;;;;16.28;53.48;101837.41;5980083;29;20216;-76
2021/07/21 04:24:50;;;;;;;1.15;0.98;;;;;;;16.26;53.86;101838.72;5980217;29;20193;-76
2021/07/21 04:27:57;;;;;;;0.90;0.88;;;;;;;16.22;53.56;101819.06;5978735;29;20442;-75
2021/07/21 04:31:05;;;;;;;0.80;0.80;;;;;;;16.20;53.74;101823.94;5978784;29;20295;-76
2021/07/21 04:34:15;;;;;;;0.80;0.80;;;;;;;16.32;53.47;101837.81;5980204;29;20193;-76
2021/07/21 04:37:20;;;;;;;1.40;0.75;;;;;;;16.41;53.59;101841.09;5979190;29;20281;-76
2021/07/21 04:40:43;;;;;;;4.18;1.08;;;;;;;16.43;53.45;101844.44;5978963;29;20419;-76
2021/07/21 04:44:11;;;;;;;0.70;0.70;;;;;;;16.32;53.48;101847.97;5974738;29;20283;-76
2021/07/21 04:47:42;;;;;;;1.10;0.90;;;;;;;16.26;53.99;101853.31;5977056;29;20209;-76
2021/07/21 04:50:52;;;;;;;1.23;0.70;;;;;;;16.36;53.45;101860.22;5993747;29;20237;-75
2021/07/21 04:54:01;;;;;;;1.10;0.77;;;;;;;16.40;53.64;101864.19;5978467;29;20208;-76
2021/07/21 04:57:10;;;;;;;3.40;0.88;;;;;;;16.39;53.36;101865.25;5978784;29;20276;-75
2021/07/21 05:00:31;;;;;;;0.85;0.85;;;;;;;16.34;53.89;101873.34;5978472;29;20236;-75
2021/07/21 05:03:46;;;;;;;0.70;0.70;;;;;;;16.45;53.63;101869.84;5979032;29;20225;-76
2021/07/21 05:07:12;;;;;;;0.85;0.85;;;;;;;16.45;53.79;101856.06;5978105;29;20216;-75
2021/07/21 05:10:26;;;;;;;0.70;0.70;;;;;;;16.54;53.95;101868.47;5978915;29;20220;-75
2021/07/21 05:13:40;;;;;;;0.65;0.65;;;;;;;16.45;53.78;101858.81;5978519;29;20215;-75
2021/07/21 05:16:48;;;;;;;0.68;0.68;;;;;;;16.41;54.39;101868.63;5980411;29;20269;-76
2021/07/21 05:19:53;;;;;;;0.73;0.70;;;;;;;16.61;53.57;101874.78;5982674;29;20531;-76
2021/07/21 05:22:58;;;;;;;1.75;0.77;;;;;;;16.53;54.00;101866.81;5982283;29;20503;-76
2021/07/21 05:26:14;;;;;;;1.08;1.08;;;;;;;16.59;53.96;101860.38;5983628;29;20380;-76
2021/07/21 05:29:38;;;;;;;0.70;0.70;;;;;;;16.44;53.83;101873.66;5982257;29;20220;-77
2021/07/21 05:32:59;;;;;;;1.13;0.90;;;;;;;16.58;54.22;101869.72;5983748;29;20193;-75
2021/07/21 05:36:05;;;;;;;1.48;0.70;;;;;;;16.65;54.11;101875.97;5982244;29;20330;-76
2021/07/21 05:39:16;;;;;;;1.63;0.75;;;;;;;16.76;54.05;101877.94;5981523;29;20554;-76
2021/07/21 05:42:20;;;;;;;0.80;0.80;;;;;;;16.81;54.06;101880.84;5982424;29;20211;-75
2021/07/21 05:45:26;;;;;;;0.80;0.80;;;;;;;17.07;53.54;101886.00;5982391;29;20291;-76
2021/07/21 05:48:33;;;;;;;0.88;0.82;;;;;;;17.16;53.13;101884.56;5981565;29;20209;-76
2021/07/21 05:51:56;;;;;;;10.80;0.90;;;;;;;17.35;52.81;101888.94;5983438;29;20193;-75
2021/07/21 05:55:00;;;;;;;1.90;0.80;;;;;;;17.54;52.94;101889.72;5983092;29;20200;-75
2021/07/21 05:58:05;;;;;;;1.15;1.10;;;;;;;17.67;52.03;101906.06;5983287;29;20193;-75
2021/07/21 06:01:13;;;;;;;0.95;0.70;;;;;;;17.76;52.09;101901.03;5981964;29;20259;-76
2021/07/21 06:04:19;;;;;;;1.13;0.70;;;;;;;17.93;51.86;101896.47;5982053;29;20272;-76
2021/07/21 06:07:42;;;;;;;5.10;0.80;;;;;;;17.91;50.96;101909.69;5982859;29;20290;-76
2021/07/21 06:11:01;;;;;;;2.17;0.93;;;;;;;17.99;50.96;101906.56;5982096;29;20228;-76
2021/07/21 06:14:06;;;;;;;0.70;0.70;;;;;;;17.84;51.03;101914.50;5983161;29;20204;-76
2021/07/21 06:17:16;;;;;;;0.77;0.70;;;;;;;17.91;50.92;101906.94;5981070;29;20209;-77
2021/07/21 06:20:38;;;;;;;0.82;0.82;;;;;;;18.12;51.04;101914.63;5982785;29;20225;-75
2021/07/21 06:23:42;;;;;;;1.25;0.80;;;;;;;18.14;51.28;101912.44;5996787;29;20208;-75
2021/07/21 06:26:46;;;;;;;0.85;0.85;;;;;;;18.39;50.45;101907.50;5982243;29;20200;-75
2021/07/21 06:30:10;;;;;;;0.50;0.50;;;;;;;18.31;49.65;101918.91;5982719;29;20230;-75
2021/07/21 06:33:18;;;;;;;3.03;0.70;;;;;;;18.48;49.90;101922.66;5981147;29;20445;-77
2021/07/21 06:36:24;;;;;;;0.60;0.60;;;;;;;18.47;49.97;101914.59;5982245;29;20224;-76
2021/07/21 06:39:28;;;;;;;0.98;0.82;;;;;;;18.46;49.64;101919.25;5981175;29;20224;-76
2021/07/21 06:42:35;;;;;;;1.55;0.82;;;;;;;18.64;50.29;101916.34;5982377;29;20200;-76
2021/07/21 06:45:40;;;;;;;2.20;0.70;;;;;;;18.73;49.39;101925.13;5980270;29;20215;-76
2021/07/21 06:48:55;;;;;;;1.30;0.80;;;;;;;18.43;48.87;101929.97;5980822;29;20240;-76
2021/07/21 06:52:03;;;;;;;2.05;0.73;;;;;;;18.49;49.67;101938.13;5980170;29;20220;-76
2021/07/21 06:55:14;;;;;;;0.70;0.70;;;;;;;18.71;49.39;101924.53;5980795;29;20394;-76
2021/07/21 06:58:23;;;;;;;0.60;0.60;;;;;;;18.82;49.15;101928.34;5980337;29;20240;-76
2021/07/21 07:01:31;;;;;;;4.70;0.80;;;;;;;18.88;48.20;101921.81;5979624;29;20583;-76
2021/07/21 07:05:10;;;;;;;0.50;0.50;;;;;;;18.81;47.03;101932.19;5980524;29;20421;-77
2021/07/21 07:08:45;;;;;;;0.60;0.60;;;;;;;19.02;46.80;101923.22;5963463;29;20299;-76
2021/07/21 07:12:06;;;;;;;0.70;0.70;;;;;;;19.13;46.71;101933.41;5981191;29;20237;-76
2021/07/21 07:15:11;;;;;;;0.60;0.60;;;;;;;19.09;46.90;101923.91;5980934;29;20284;-76
2021/07/21 07:18:15;;;;;;;0.60;0.60;;;;;;;19.18;47.31;101927.97;5981133;29;20193;-76
2021/07/21 07:21:22;;;;;;;0.60;0.60;;;;;;;19.28;45.99;101933.69;5981182;29;20227;-75
2021/07/21 07:24:28;;;;;;;0.63;0.63;;;;;;;19.27;46.48;101926.47;5980234;29;20201;-76
2021/07/21 07:27:32;;;;;;;1.33;0.80;;;;;;;19.23;46.68;101933.59;5981171;29;20197;-75
2021/07/21 07:30:37;;;;;;;0.65;0.65;;;;;;;19.07;46.48;101942.66;5981135;29;20233;-76
2021/07/21 07:33:41;;;;;;;0.88;0.63;;;;;;;19.06;46.72;101950.13;5981310;29;20228;-77
2021/07/21 07:36:47;;;;;;;0.68;0.68;;;;;;;19.26;46.14;101955.22;5980424;29;20193;-76
2021/07/21 07:39:51;;;;;;;1.40;0.90;;;;;;;19.18;46.53;101947.31;5979190;29;20483;-76
2021/07/21 07:42:55;;;;;;;0.60;0.60;;;;;;;19.43;45.89;101958.06;5979627;29;20391;-76
2021/07/21 07:45:59;;;;;;;0.68;0.68;;;;;;;19.55;45.75;101954.13;5980590;29;20256;-75
2021/07/21 07:49:06;;;;;;;0.70;0.70;;;;;;;19.33;45.33;101953.16;5980944;29;20200;-75
2021/07/21 07:52:13;;;;;;;0.70;0.70;;;;;;;19.64;45.73;101958.19;5979997;29;20273;-76
2021/07/21 07:55:18;;;;;;;0.60;0.60;;;;;;;19.43;44.53;101950.59;5979791;29;20484;-75
2021/07/21 07:58:22;;;;;;;0.60;0.60;;;;;;;19.54;44.39;101959.94;5980361;29;20215;-76
2021/07/21 08:01:26;;;;;;;0.75;0.70;;;;;;;19.53;44.47;101964.63;5980311;29;20251;-76
2021/07/21 08:04:31;;;;;;;0.77;0.77;;;;;;;19.45;44.22;101967.78;5980798;29;20278;-76
2021/07/21 08:07:38;;;;;;;0.60;0.60;;;;;;;19.48;43.77;101972.84;5979290;29;20200;-76
2021/07/21 08:10:44;;;;;;;0.70;0.70;;;;;;;19.64;43.57;101966.50;5979343;29;20496;-76
2021/07/21 08:13:49;;;;;;;1.45;0.70;;;;;;;19.59;43.64;101977.47;5979301;29;20371;-76
2021/07/21 08:16:54;;;;;;;0.60;0.60;;;;;;;19.62;44.24;101965.88;5979192;29;20209;-76
2021/07/21 08:19:58;;;;;;;3.10;0.70;;;;;;;19.76;44.05;101975.56;5979966;29;20193;-76
2021/07/21 08:23:04;;;;;;;0.65;0.65;;;;;;;19.67;42.99;101979.00;5978198;29;20236;-77
2021/07/21 08:26:09;;;;;;;0.73;0.60;;;;;;;19.80;43.81;101981.41;5979383;29;20200;-76
2021/07/21 08:29:13;;;;;;;1.30;0.63;;;;;;;19.62;43.65;101968.66;5977682;29;20215;-76
2021/07/21 08:32:18;;;;;;;1.10;0.80;;;;;;;19.90;43.56;101982.44;5979823;29;20204;-76
2021/07/21 08:35:30;;;;;;;0.60;0.60;;;;;;;19.87;43.62;101971.03;5979042;29;20234;-76
2021/07/21 08:38:35;;;;;;;0.90;0.60;;;;;;;19.71;44.01;101972.69;5980136;29;20193;-76
2021/07/21 08:41:40;;;;;;;0.52;0.52;;;;;;;19.74;44.49;101983.28;5979582;29;20220;-76
2021/07/21 08:44:45;;;;;;;0.68;0.68;;;;;;;19.67;43.02;101985.34;5980002;29;20197;-76
2021/07/21 08:47:49;;;;;;;0.70;0.70;;;;;;;19.47;42.44;101971.13;5980032;29;20199;-75
2021/07/21 08:50:55;;;;;;;0.70;0.70;;;;;;;19.47;42.24;101954.53;5982495;29;20264;-75
2021/07/21 08:54:01;;;;;;;0.65;0.65;;;;;;;19.40;41.42;101981.53;5984393;29;20197;-77
2021/07/21 08:57:07;;;;;;;0.70;0.70;;;;;;;19.61;42.31;101978.06;5984396;29;20193;-76
2021/07/21 09:00:14;;;;;;;0.77;0.77;;;;;;;19.57;42.23;101976.88;5983245;29;20248;-75
2021/07/21 09:03:21;;;;;;;0.75;0.75;;;;;;;19.42;42.83;101978.50;5984148;29;20247;-75
2021/07/21 09:06:26;;;;;;;5.32;0.70;;;;;;;19.34;43.51;101971.41;5984290;29;20193;-76
2021/07/21 09:09:34;;;;;;;0.75;0.75;;;;;;;19.62;43.18;101974.19;5984199;29;20193;-76
2021/07/21 09:12:39;;;;;;;0.60;0.60;;;;;;;19.64;44.26;101983.09;5983761;29;20210;-76
2021/07/21 09:15:44;;;;;;;2.17;0.73;;;;;;;19.70;43.43;101982.09;5984040;29;20279;-76
2021/07/21 09:18:53;;;;;;;0.65;0.65;;;;;;;19.59;43.21;101976.63;5982966;29;20201;-75
2021/07/21 09:22:13;;;;;;;0.60;0.60;;;;;;;19.62;43.23;101976.97;5983860;29;20221;-76
2021/07/21 09:25:23;;;;;;;0.55;0.55;;;;;;;19.59;43.37;101974.72;5984268;29;20193;-76
2021/07/21 09:28:35;;;;;;;0.60;0.60;;;;;;;19.63;43.79;101981.41;5982821;29;20361;-74
2021/07/21 09:31:43;;;;;;;5.43;0.90;;;;;;;19.58;43.24;101986.84;5983817;29;20204;-75
2021/07/21 09:34:52;;;;;;;0.70;0.70;;;;;;;19.67;43.00;101988.13;5983468;29;20484;-76
2021/07/21 09:38:02;;;;;;;1.50;0.70;;;;;;;19.72;43.27;101990.97;5982434;29;20414;-76
2021/07/21 09:41:12;;;;;;;1.30;0.70;;;;;;;19.81;43.38;101974.81;5982330;29;20231;-76
2021/07/21 09:44:17;;;;;;;4.05;0.70;;;;;;;19.86;43.58;101981.28;5982425;29;20193;-75
2021/07/21 09:47:22;;;;;;;0.70;0.70;;;;;;;19.91;42.95;101983.28;5983367;29;20264;-75
2021/07/21 09:50:29;;;;;;;0.82;0.60;;;;;;;19.71;41.61;101989.31;5982113;29;20559;-75
2021/07/21 09:53:40;;;;;;;0.60;0.60;;;;;;;19.56;41.76;101975.22;5981049;29;20213;-75
2021/07/21 09:56:50;;;;;;;0.60;0.60;;;;;;;19.68;42.92;101984.28;5982177;29;20197;-76
2021/07/21 09:59:57;;;;;;;0.90;0.90;;;;;;;19.81;43.55;101978.41;5983076;29;20465;-76
2021/07/21 10:03:17;;;;;;;1.02;0.73;;;;;;;19.89;44.93;101969.69;5982643;29;20245;-77
2021/07/21 10:06:22;;;;;;;2.63;0.70;;;;;;;19.79;43.43;101986.16;5983238;29;20221;-76
2021/07/21 10:09:26;;;;;;;2.28;0.80;;;;;;;19.87;42.75;101982.97;5984138;29;20193;-76
2021/07/21 10:12:31;;;;;;;0.73;0.73;;;;;;;19.89;43.17;101983.53;5982383;29;20213;-76
2021/07/21 10:15:36;;;;;;;1.08;0.73;;;;;;;19.97;43.28;101977.59;5982796;29;20313;-76
2021/07/21 10:18:40;;;;;;;0.70;0.70;;;;;;;20.02;43.67;101984.28;5983018;29;20193;-77
2021/07/21 10:21:47;;;;;;;0.60;0.60;;;;;;;19.97;44.22;101987.81;5982734;29;20265;-76
2021/07/21 10:24:51;;;;;;;0.70;0.70;;;;;;;20.11;44.50;101980.03;5983058;29;20310;-77
2021/07/21 10:27:58;;;;;;;0.60;0.60;;;;;;;20.22;44.96;101984.63;5982730;29;20194;-76
2021/07/21 10:31:02;;;;;;;0.60;0.60;;;;;;;20.18;42.91;101977.91;5981826;29;20193;-76
2021/07/21 10:34:10;;;;;;;0.80;0.80;;;;;;;20.22;45.91;101992.94;5981392;29;20548;-76
2021/07/21 10:37:14;;;;;;;0.80;0.80;;;;;;;20.26;43.83;101983.06;5981699;29;20463;-77
2021/07/21 10:40:19;;;;;;;0.70;0.70;;;;;;;20.19;43.12;101985.13;5982221;29;20250;-77
2021/07/21 10:43:29;;;;;;;0.63;0.63;;;;;;;20.01;43.03;101977.91;5982147;29;20252;-75
2021/07/21 10:46:38;;;;;;;0.95;0.63;;;;;;;20.20;43.47;101982.13;5982466;29;20295;-77
2021/07/21 10:49:48;;;;;;;0.60;0.60;;;;;;;20.33;43.05;101980.94;5982286;29;20260;-76
2021/07/21 10:53:29;;;;;;;0.70;0.70;;;;;;;20.12;42.92;101987.22;5985873;29;20237;-77
2021/07/21 11:00:05;;;;;;;0.50;0.50;;;;;;;20.31;43.55;101977.59;5981714;29;20211;-76
2021/07/21 11:03:20;;;;;;;0.57;0.57;;;;;;;20.40;42.24;101971.34;5980636;29;20362;-76
2021/07/21 11:06:36;;;;;;;0.63;0.63;;;;;;;20.40;42.22;101971.34;5981725;29;20201;-76
2021/07/21 11:09:42;;;;;;;0.88;0.70;;;;;;;20.60;42.51;101981.88;5981817;29;20197;-77
2021/07/21 11:12:48;;;;;;;1.30;0.68;;;;;;;20.68;42.65;101987.00;5979988;29;20546;-76
2021/07/21 11:15:54;;;;;;;0.60;0.60;;;;;;;20.73;43.27;101986.22;5979944;29;20500;-76
2021/07/21 11:18:58;;;;;;;2.45;0.70;;;;;;;20.84;41.57;101977.78;5980670;29;20524;-76
2021/07/21 11:22:06;;;;;;;3.58;0.82;;;;;;;20.82;41.33;101996.63;5980648;29;20257;-76
2021/07/21 11:25:15;;;;;;;0.85;0.75;;;;;;;20.83;40.93;101981.66;5981156;29;20193;-76
2021/07/21 11:28:28;;;;;;;0.70;0.70;;;;;;;20.90;42.11;101981.47;5980537;29;20197;-76
2021/07/21 11:31:58;;;;;;;1.13;0.68;;;;;;;20.83;40.13;101970.56;5979618;29;20215;-75
2021/07/21 11:35:39;;;;;;;1.35;0.68;;;;;;;20.92;40.80;101984.81;5981293;29;20228;-76
2021/07/21 11:38:49;;;;;;;3.35;0.70;;;;;;;21.03;40.40;101976.34;5981094;29;20273;-76
2021/07/21 11:41:54;;;;;;;2.10;0.70;;;;;;;20.97;40.03;101960.75;5981251;29;20243;-76
2021/07/21 11:45:21;;;;;;;2.10;0.70;;;;;;;21.08;40.20;101968.13;5981219;29;20223;-77
2021/07/21 11:48:26;;;;;;;0.47;0.47;;;;;;;21.27;39.87;101976.09;5976737;29;20217;-77
2021/07/21 11:51:31;;;;;;;1.75;0.50;;;;;;;21.26;40.53;101980.00;5980921;29;20255;-76
2021/07/21 11:54:37;;;;;;;1.70;0.60;;;;;;;21.24;39.32;101966.38;5981105;29;20205;-76
2021/07/21 11:57:42;;;;;;;0.65;0.50;;;;;;;21.35;40.12;101975.66;5979629;29;20510;-77
2021/07/21 12:00:49;;;;;;;0.50;0.50;;;;;;;21.29;38.42;101973.94;5980575;29;20292;-77
2021/07/21 12:03:59;;;;;;;0.60;0.60;;;;;;;21.34;37.97;101977.56;5979975;29;20509;-76
2021/07/21 12:07:03;;;;;;;0.77;0.77;;;;;;;21.37;37.55;101976.22;5979739;29;20193;-77
2021/07/21 12:10:14;;;;;;;0.60;0.60;;;;;;;21.51;39.68;101966.38;5980621;29;20199;-76
2021/07/21 12:13:20;;;;;;;0.60;0.60;;;;;;;21.58;40.38;101967.84;5979270;29;20373;-76
2021/07/21 12:16:25;;;;;;;1.25;0.70;;;;;;;21.53;37.98;101975.28;5979915;29;20261;-76
2021/07/21 12:19:31;;;;;;;0.50;0.50;;;;;;;21.67;38.19;101973.78;5980158;29;20225;-76
2021/07/21 12:22:38;;;;;;;0.70;0.70;;;;;;;21.65;38.67;101970.38;5979759;29;20202;-76
2021/07/21 12:25:42;;;;;;;1.27;0.60;;;;;;;21.58;38.43;101967.00;5979775;29;20268;-76
2021/07/21 12:28:55;;;;;;;0.60;0.60;;;;;;;21.73;38.99;101964.38;5980299;29;20244;-76
2021/07/21 12:32:07;;;;;;;0.47;0.47;;;;;;;21.73;37.75;101954.09;5980048;29;20193;-76
2021/07/21 12:35:19;;;;;;;0.40;0.40;;;;;;;21.87;36.95;101954.53;5979764;29;20246;-76
2021/07/21 12:38:24;;;;;;;0.55;0.55;;;;;;;21.97;37.52;101960.16;5993233;29;20429;-77
2021/07/21 12:41:28;;;;;;;1.88;0.40;;;;;;;21.73;36.29;101969.91;5979806;29;20193;-76
2021/07/21 12:44:37;;;;;;;0.50;0.50;;;;;;;21.96;36.68;101966.81;5979607;29;20273;-75
2021/07/21 12:47:43;;;;;;;0.50;0.50;;;;;;;22.01;36.91;101955.75;5979023;29;20247;-75
2021/07/21 12:50:49;;;;;;;2.85;0.52;;;;;;;22.17;36.52;101954.75;5979774;29;20193;-75
2021/07/21 12:53:53;;;;;;;1.45;0.40;;;;;;;22.07;37.17;101951.91;5977810;29;20452;-76
2021/07/21 12:56:59;;;;;;;5.03;0.70;;;;;;;22.09;36.66;101941.34;5978994;29;20265;-76
2021/07/21 13:00:11;;;;;;;0.60;0.60;;;;;;;22.16;37.66;101953.06;5979085;29;20200;-76
2021/07/21 13:03:17;;;;;;;1.35;0.50;;;;;;;22.12;36.35;101951.94;5991848;29;20581;-76
2021/07/21 13:06:27;;;;;;;0.80;0.60;;;;;;;22.24;36.73;101949.81;5979502;29;20299;-76
2021/07/21 13:09:31;;;;;;;0.50;0.50;;;;;;;22.40;34.87;101937.69;5978397;29;20385;-76
2021/07/21 13:12:35;;;;;;;0.50;0.50;;;;;;;22.42;34.87;101952.13;5979644;29;20379;-76
2021/07/21 13:15:39;;;;;;;2.10;0.50;;;;;;;22.52;35.89;101944.97;5978543;29;20490;-76
2021/07/21 13:18:45;;;;;;;0.60;0.60;;;;;;;22.64;34.92;101948.41;5978640;29;20428;-76
2021/07/21 13:21:51;;;;;;;0.60;0.60;;;;;;;22.68;35.50;101939.25;5979104;29;20197;-77
2021/07/21 13:24:55;;;;;;;1.27;0.70;;;;;;;22.79;34.31;101940.13;5979327;29;20248;-77
2021/07/21 13:28:28;;;;;;;1.27;0.70;;;;;;;22.77;36.50;101939.56;5977621;29;20398;-77
2021/07/21 13:31:35;;;;;;;2.55;0.60;;;;;;;22.84;35.63;101942.94;5979288;29;20256;-77
2021/07/21 13:34:43;;;;;;;0.70;0.60;;;;;;;22.96;34.84;101940.75;5977874;29;20221;-78
2021/07/21 13:37:57;;;;;;;1.40;0.60;;;;;;;23.01;34.07;101944.38;5980293;29;20368;-77
2021/07/21 13:41:04;;;;;;;0.60;0.60;;;;;;;23.27;33.93;101936.94;5983186;29;20481;-77
2021/07/21 13:44:10;;;;;;;0.63;0.50;;;;;;;25.23;30.92;101926.63;5982322;29;20483;-76
2021/07/21 13:47:14;;;;;;;0.60;0.60;;;;;;;26.80;28.56;101924.09;5983400;29;20205;-76
2021/07/21 13:50:22;;;;;;;0.60;0.60;;;;;;;27.46;26.85;101917.56;5983519;29;20248;-76
2021/07/21 13:53:28;;;;;;;0.70;0.70;;;;;;;26.55;28.94;101921.59;5983388;29;20200;-76
2021/07/21 13:56:32;;;;;;;0.55;0.55;;;;;;;26.10;30.35;101926.50;5982917;29;20197;-77
2021/07/21 13:59:38;;;;;;;0.50;0.50;;;;;;;26.59;29.48;101925.44;5982130;29;20283;-77
2021/07/21 14:02:42;;;;;;;4.40;0.70;;;;;;;26.34;29.35;101926.56;5982984;29;20547;-76
2021/07/21 14:05:46;;;;;;;1.92;0.50;;;;;;;26.04;29.48;101936.06;5983098;29;20228;-76
2021/07/21 14:08:52;;;;;;;0.50;0.50;;;;;;;25.52;30.34;101929.53;5983396;29;20200;-76
2021/07/21 14:12:00;;;;;;;2.42;0.60;;;;;;;24.88;30.32;101931.25;5982093;29;20269;-76
2021/07/21 14:15:05;;;;;;;1.00;1.00;;;;;;;24.93;31.32;101921.22;5982698;29;20197;-76
2021/07/21 14:18:14;;;;;;;0.60;0.60;;;;;;;24.61;32.05;101930.78;5981816;29;20204;-76
2021/07/21 14:21:18;;;;;;;0.70;0.70;;;;;;;24.60;31.51;101929.09;5982773;29;20200;-76
2021/07/21 14:24:25;;;;;;;1.85;0.93;;;;;;;24.55;31.93;101926.34;5982745;29;20224;-76
2021/07/21 14:27:29;;;;;;;0.50;0.50;;;;;;;24.18;32.30;101937.03;5980201;29;20253;-76
2021/07/21 14:30:33;;;;;;;0.60;0.60;;;;;;;24.25;32.42;101938.41;5982881;29;20482;-77
2021/07/21 14:33:37;;;;;;;0.52;0.52;;;;;;;24.23;31.99;101928.66;5981356;29;20452;-76
2021/07/21 14:36:46;;;;;;;0.60;0.60;;;;;;;24.35;31.19;101925.56;5981244;29;20561;-76
2021/07/21 14:39:52;;;;;;;0.70;0.70;;;;;;;24.10;31.24;101912.53;5981226;29;20374;-75
2021/07/21 14:42:58;;;;;;;3.30;0.50;;;;;;;24.09;32.63;101921.97;5980918;29;20437;-76
2021/07/21 14:46:04;;;;;;;0.65;0.65;;;;;;;23.90;32.27;101918.09;5981672;29;20262;-76